createdAt,value
2022-11-22T00:01:53.925Z,59.11
2022-11-22T00:05:54.318Z,59.45
2022-11-22T00:09:54.556Z,60.19
2022-11-22T00:13:54.672Z,59.10
2022-11-22T00:17:57.371Z,59.05
2022-11-22T00:21:57.478Z,59.31
2022-11-22T00:25:57.870Z,59.39
2022-11-22T00:29:58.009Z,59.82
2022-11-22T00:34:00.786Z,59.76
2022-11-22T00:38:00.860Z,59.31
2022-11-22T00:42:01.997Z,59.30
2022-11-22T00:46:02.958Z,59.70
2022-11-22T00:50:06.378Z,59.47
2022-11-22T00:54:06.771Z,59.87
2022-11-22T00:58:06.904Z,59.54
2022-11-22T01:02:07.050Z,59.50
2022-11-22T01:06:09.745Z,58.97
2022-11-22T01:10:11.631Z,59.05
2022-11-22T01:14:11.749Z,59.05
2022-11-22T01:18:11.889Z,59.08
2022-11-22T01:22:14.796Z,59.34
2022-11-22T01:26:16.113Z,59.57
2022-11-22T01:30:17.242Z,59.42
2022-11-22T01:34:17.568Z,59.38
2022-11-22T01:38:20.527Z,59.58
2022-11-22T01:42:20.827Z,59.65
2022-11-22T01:46:37.085Z,60.11
2022-11-22T01:50:42.638Z,60.25
2022-11-22T01:54:50.753Z,60.23
2022-11-22T01:58:59.791Z,60.50
2022-11-22T02:03:05.468Z,60.08
2022-11-22T02:07:13.878Z,59.69
2022-11-22T02:11:17.112Z,59.72
2022-11-22T02:15:17.621Z,59.98
2022-11-22T02:19:24.894Z,59.94
2022-11-22T02:23:37.908Z,60.83
2022-11-22T02:27:40.647Z,60.36
2022-11-22T02:31:45.436Z,59.83
2022-11-22T02:35:47.041Z,59.80
2022-11-22T02:39:51.064Z,59.41
2022-11-22T02:43:53.795Z,59.14
2022-11-22T02:47:53.873Z,59.10
2022-11-22T02:51:56.009Z,59.13
2022-11-22T02:55:56.093Z,59.00
2022-11-22T02:59:58.788Z,59.43
2022-11-22T03:03:58.904Z,59.77
2022-11-22T03:07:59.107Z,59.32
2022-11-22T03:11:59.512Z,59.25
2022-11-22T03:16:02.416Z,59.00
2022-11-22T03:20:02.597Z,59.25
2022-11-22T03:24:03.074Z,59.68
2022-11-22T03:28:03.200Z,59.50
2022-11-22T03:32:06.024Z,59.70
2022-11-22T03:36:07.468Z,59.75
2022-11-22T03:40:09.474Z,59.85
2022-11-22T03:44:10.154Z,59.73
2022-11-22T03:48:12.860Z,59.34
2022-11-22T03:52:13.051Z,59.40
2022-11-22T03:56:13.343Z,58.69
2022-11-22T04:00:15.848Z,58.98
2022-11-22T04:04:19.732Z,58.39
2022-11-22T04:08:20.030Z,59.39
2022-11-22T04:12:20.388Z,58.68
2022-11-22T04:16:20.707Z,58.84
2022-11-22T04:20:39.151Z,58.50
2022-11-22T04:24:51.772Z,58.46
2022-11-22T04:29:09.127Z,57.73
2022-11-22T04:33:10.105Z,58.22
2022-11-22T04:37:12.879Z,58.30
2022-11-22T04:41:13.257Z,58.22
2022-11-22T04:45:14.182Z,58.58
2022-11-22T04:49:14.346Z,57.79
2022-11-22T04:53:15.264Z,57.68
2022-11-22T04:57:15.404Z,57.38
2022-11-22T05:01:15.622Z,57.21
2022-11-22T05:05:15.802Z,57.31
2022-11-22T05:09:18.857Z,57.45
2022-11-22T05:13:19.019Z,57.61
2022-11-22T05:17:19.156Z,58.05
2022-11-22T05:21:19.254Z,57.69
2022-11-22T05:25:25.476Z,58.12
2022-11-22T05:29:26.072Z,57.98
2022-11-22T05:33:26.210Z,57.80
2022-11-22T05:37:26.848Z,57.84
2022-11-22T05:41:29.680Z,57.86
2022-11-22T05:45:30.048Z,57.55
2022-11-22T05:49:30.510Z,57.80
2022-11-22T05:53:30.762Z,57.77
2022-11-22T05:57:36.004Z,58.03
2022-11-22T06:01:36.169Z,57.74
2022-11-22T06:05:36.282Z,57.32
2022-11-22T06:09:36.453Z,58.08
2022-11-22T06:13:42.117Z,57.84
2022-11-22T06:17:42.307Z,58.75
2022-11-22T06:21:42.771Z,59.16
2022-11-22T06:25:43.141Z,59.27
2022-11-22T06:29:46.077Z,58.95
2022-11-22T06:33:47.332Z,58.50
2022-11-22T06:37:47.490Z,58.21
2022-11-22T06:41:47.927Z,57.85
2022-11-22T06:45:50.821Z,57.95
2022-11-22T06:49:50.976Z,57.95
2022-11-22T06:53:52.580Z,58.11
2022-11-22T06:57:53.801Z,58.08
2022-11-22T07:01:59.016Z,58.56
2022-11-22T07:06:03.154Z,59.09
2022-11-22T07:10:03.227Z,59.26
2022-11-22T07:14:08.749Z,59.31
2022-11-22T07:18:12.047Z,58.83
2022-11-22T07:22:12.169Z,58.64
2022-11-22T07:26:16.131Z,59.22
2022-11-22T07:30:17.978Z,59.12
2022-11-22T07:34:23.899Z,58.75
2022-11-22T07:38:59.329Z,58.68
2022-11-22T07:43:08.264Z,58.59
2022-11-22T07:47:08.411Z,58.54
2022-11-22T07:51:14.763Z,58.16
2022-11-22T07:55:14.890Z,58.41
2022-11-22T07:59:15.141Z,58.44
2022-11-22T08:03:17.794Z,58.06
2022-11-22T08:07:21.144Z,57.34
2022-11-22T08:11:21.515Z,57.22
2022-11-22T08:15:22.225Z,56.42
2022-11-22T08:19:22.683Z,56.78
2022-11-22T08:23:25.735Z,55.97
2022-11-22T08:27:27.803Z,56.56
2022-11-22T08:31:29.655Z,56.45
2022-11-22T08:35:30.104Z,56.15
2022-11-22T08:39:33.376Z,57.19
2022-11-22T08:43:33.787Z,57.57
2022-11-22T08:47:38.138Z,57.23
2022-11-22T08:51:45.506Z,57.10
2022-11-22T08:56:04.217Z,57.06
2022-11-22T09:00:04.626Z,55.47
2022-11-22T09:04:04.719Z,55.43
2022-11-22T09:12:27.763Z,54.22
2022-11-22T09:16:31.822Z,54.25
2022-11-22T09:20:32.575Z,54.49
2022-11-22T09:24:37.248Z,54.91
2022-11-22T09:28:40.729Z,54.71
2022-11-22T09:32:41.020Z,54.00
2022-11-22T09:36:44.389Z,54.03
2022-11-22T09:40:49.804Z,54.05
2022-11-22T09:45:31.344Z,54.33
2022-11-22T09:49:40.200Z,53.63
2022-11-22T09:53:49.381Z,53.15
2022-11-22T09:57:55.089Z,51.90
2022-11-22T10:02:18.226Z,50.55
2022-11-22T10:06:30.070Z,50.14
2022-11-22T10:10:41.317Z,49.67
2022-11-22T10:14:55.963Z,48.90
2022-11-22T10:19:06.964Z,48.95
2022-11-22T10:23:19.778Z,48.89
2022-11-22T10:27:20.007Z,49.48
2022-11-22T10:31:29.225Z,49.94
2022-11-22T10:35:54.198Z,49.71
2022-11-22T10:40:16.180Z,50.61
2022-11-22T10:44:37.367Z,50.44
2022-11-22T10:48:49.094Z,51.15
2022-11-22T10:53:07.871Z,50.69
2022-11-22T10:57:21.689Z,50.62
2022-11-22T11:01:36.109Z,51.72
2022-11-22T11:06:15.287Z,52.35
2022-11-22T11:20:52.149Z,52.84
2022-11-22T11:24:55.476Z,52.45
2022-11-22T11:29:41.642Z,52.95
2022-11-22T11:33:44.450Z,51.97
2022-11-22T11:37:44.682Z,51.27
2022-11-22T11:41:44.830Z,50.93
2022-11-22T11:45:47.738Z,50.67
2022-11-22T11:49:54.446Z,50.12
2022-11-22T11:54:03.841Z,51.11
2022-11-22T11:58:07.581Z,51.50
2022-11-22T12:02:18.836Z,51.29
2022-11-22T12:06:20.122Z,51.63
2022-11-22T12:10:46.811Z,51.87
2022-11-22T12:15:10.753Z,50.97
2022-11-22T12:19:27.543Z,50.63
2022-11-22T12:23:36.336Z,50.37
2022-11-22T12:27:36.671Z,50.95
2022-11-22T12:31:44.409Z,51.46
2022-11-22T12:35:49.466Z,51.77
2022-11-22T12:39:56.206Z,52.01
2022-11-22T12:44:02.690Z,51.92
2022-11-22T12:48:09.358Z,52.38
2022-11-22T12:52:26.425Z,53.20
2022-11-22T12:56:34.042Z,51.88
2022-11-22T13:00:44.694Z,51.19
2022-11-22T13:04:59.922Z,51.21
2022-11-22T13:09:08.312Z,51.62
2022-11-22T13:13:25.231Z,51.73
2022-11-22T13:17:30.778Z,52.60
2022-11-22T13:21:46.483Z,52.79
2022-11-22T13:26:14.555Z,53.43
2022-11-22T13:30:23.837Z,54.16
2022-11-22T13:34:29.380Z,53.09
2022-11-22T13:38:31.301Z,52.87
2022-11-22T13:42:35.032Z,51.57
2022-11-22T13:46:56.838Z,49.95
2022-11-22T13:51:06.516Z,50.49
2022-11-22T13:55:36.033Z,51.86
2022-11-22T13:59:46.605Z,52.53
2022-11-22T14:03:47.286Z,52.33
2022-11-22T14:07:52.159Z,52.44
2022-11-22T14:12:26.360Z,53.40
2022-11-22T14:16:53.587Z,53.87
2022-11-22T14:21:07.280Z,54.75
2022-11-22T14:25:33.378Z,55.48
2022-11-22T14:30:05.880Z,55.94
2022-11-22T14:34:27.658Z,55.79
2022-11-22T14:38:35.822Z,55.70
2022-11-22T14:42:55.786Z,55.85
2022-11-22T14:47:04.448Z,55.76
2022-11-22T14:51:18.175Z,56.64
2022-11-22T14:55:23.193Z,55.93
2022-11-22T15:00:03.187Z,57.22
2022-11-22T15:09:13.831Z,57.21
2022-11-22T15:09:52.945Z,58.59
2022-11-22T15:14:46.912Z,58.94
2022-11-22T15:59:03.865Z,59.92
2022-11-22T16:03:07.119Z,60.07
2022-11-22T16:07:10.286Z,59.31
2022-11-22T16:11:19.477Z,59.69
2022-11-22T16:15:36.342Z,59.50
2022-11-22T16:19:39.230Z,59.55
2022-11-22T16:23:40.979Z,59.59
2022-11-22T16:27:49.118Z,60.21
2022-11-22T16:31:49.843Z,60.17
2022-11-22T16:35:57.021Z,59.88
2022-11-22T16:39:57.236Z,60.09
2022-11-22T16:44:00.003Z,60.01
2022-11-22T16:48:24.537Z,59.69
2022-11-22T16:52:23.124Z,59.58
2022-11-22T16:56:26.600Z,59.12
2022-11-22T17:00:27.446Z,59.31
2022-11-22T17:04:28.272Z,59.20
2022-11-22T17:08:31.111Z,59.11
2022-11-22T17:12:33.820Z,59.66
2022-11-22T17:16:34.415Z,59.37
2022-11-22T17:20:34.760Z,59.11
2022-11-22T17:24:38.107Z,58.88
2022-11-22T17:28:38.518Z,58.77
2022-11-22T17:32:40.313Z,59.12
2022-11-22T17:36:40.898Z,59.19
2022-11-22T17:40:44.835Z,59.27
2022-11-22T17:44:44.985Z,59.33
2022-11-22T17:48:45.239Z,59.53
2022-11-22T17:52:45.364Z,59.77
2022-11-22T17:56:48.092Z,59.97
2022-11-22T18:00:48.208Z,59.74
2022-11-22T18:04:48.302Z,59.39
2022-11-22T18:08:48.721Z,59.12
2022-11-22T18:13:19.799Z,59.36
2022-11-22T18:17:12.182Z,58.94
2022-11-22T18:21:17.139Z,59.16
2022-11-22T18:25:18.007Z,59.70
2022-11-22T18:29:42.098Z,60.14
2022-11-22T18:33:40.862Z,60.59
2022-11-22T18:37:41.542Z,60.40
2022-11-22T18:41:47.091Z,60.67
2022-11-22T18:45:49.937Z,61.13
2022-11-22T18:49:50.940Z,60.41
2022-11-22T18:53:51.242Z,59.96
2022-11-22T18:57:53.940Z,59.89
2022-11-22T19:01:56.953Z,59.94
2022-11-22T19:05:57.126Z,59.27
2022-11-22T19:09:57.364Z,58.83
2022-11-22T19:13:57.627Z,58.72
2022-11-22T19:18:00.471Z,58.94
2022-11-22T19:22:00.670Z,58.77
2022-11-22T19:26:00.969Z,58.32
2022-11-22T19:30:01.200Z,58.04
2022-11-22T19:34:04.158Z,58.11
2022-11-22T19:38:04.358Z,58.53
2022-11-22T19:42:04.585Z,58.51
2022-11-22T19:46:05.453Z,59.11
2022-11-22T19:50:09.371Z,60.20
2022-11-22T19:54:10.741Z,59.78
2022-11-22T19:58:11.018Z,59.27
2022-11-22T20:02:13.586Z,59.30
2022-11-22T20:06:17.317Z,59.24
2022-11-22T20:10:18.782Z,59.50
2022-11-22T20:14:19.137Z,59.79
2022-11-22T20:18:19.353Z,59.75
2022-11-22T20:22:22.165Z,59.89
2022-11-22T20:26:25.308Z,59.80
2022-11-22T20:30:25.474Z,60.15
2022-11-22T20:34:26.073Z,59.92
2022-11-22T20:38:28.958Z,59.96
2022-11-22T20:42:36.456Z,60.35
2022-11-22T20:46:40.511Z,60.83
2022-11-22T20:50:40.830Z,61.45
2022-11-22T20:54:43.656Z,61.15
2022-11-22T20:58:44.153Z,61.25
2022-11-22T21:02:44.459Z,61.13
2022-11-22T21:06:44.665Z,60.78
2022-11-22T21:10:47.551Z,60.71
2022-11-22T21:14:51.322Z,60.73
2022-11-22T21:18:54.419Z,61.08
2022-11-22T21:22:56.506Z,61.18
2022-11-22T21:26:59.262Z,60.95
2022-11-22T21:31:00.410Z,61.34
2022-11-22T21:35:00.808Z,61.13
2022-11-22T21:39:01.245Z,60.99
2022-11-22T21:43:04.061Z,61.27
2022-11-22T21:47:04.828Z,61.20
2022-11-22T21:51:13.577Z,61.44
2022-11-22T21:55:22.627Z,61.58
2022-11-22T21:59:25.756Z,61.37
2022-11-22T22:03:27.440Z,61.42
2022-11-22T22:07:51.528Z,61.26
2022-11-22T22:11:49.063Z,61.31
2022-11-22T22:15:52.099Z,61.59
2022-11-22T22:19:52.501Z,61.55
2022-11-22T22:23:53.577Z,60.96
2022-11-22T22:27:53.944Z,61.75
2022-11-22T22:31:56.804Z,61.81
2022-11-22T22:35:59.868Z,61.94
2022-11-22T22:40:20.572Z,61.79
2022-11-22T22:44:23.389Z,62.11
2022-11-22T22:48:26.689Z,61.59
2022-11-22T22:52:27.367Z,61.96
2022-11-22T22:56:28.178Z,61.08
2022-11-22T23:00:28.556Z,61.59
2022-11-22T23:04:31.723Z,61.51
2022-11-22T23:08:31.878Z,61.57
2022-11-22T23:12:32.191Z,61.79
2022-11-22T23:16:32.554Z,61.73
2022-11-22T23:20:35.284Z,61.63
2022-11-22T23:24:36.303Z,61.61
2022-11-22T23:28:36.756Z,61.46
2022-11-22T23:32:37.013Z,61.37
2022-11-22T23:36:41.233Z,61.29
2022-11-22T23:40:41.498Z,61.56
2022-11-22T23:44:41.855Z,61.59
2022-11-22T23:48:41.988Z,61.58
2022-11-22T23:52:44.668Z,61.29
2022-11-22T23:56:45.469Z,61.12
